sensor_id;sensor_type;location;lat;lon;timestamp;P1;durP1;ratioP1;P2;durP2;ratioP2
44358;SDS011;30077;52.474;13.326;2022-08-21T00:01:10;11.57;;;9.57;;
44358;SDS011;30077;52.474;13.326;2022-08-21T00:06:13;10.50;;;8.57;;
44358;SDS011;30077;52.474;13.326;2022-08-21T00:11:14;11.82;;;9.20;;
44358;SDS011;30077;52.474;13.326;2022-08-21T00:16:14;13.57;;;9.70;;
44358;SDS011;30077;52.474;13.326;2022-08-21T00:21:14;11.52;;;10.05;;
44358;SDS011;30077;52.474;13.326;2022-08-21T00:26:15;11.15;;;9.75;;
44358;SDS011;30077;52.474;13.326;2022-08-21T00:31:16;11.52;;;9.35;;
44358;SDS011;30077;52.474;13.326;2022-08-21T00:36:16;11.93;;;9.43;;
44358;SDS011;30077;52.474;13.326;2022-08-21T00:41:17;11.17;;;8.87;;
44358;SDS011;30077;52.474;13.326;2022-08-21T00:46:17;12.43;;;9.63;;
44358;SDS011;30077;52.474;13.326;2022-08-21T00:51:19;14.90;;;10.80;;
44358;SDS011;30077;52.474;13.326;2022-08-21T00:56:23;14.15;;;10.38;;
44358;SDS011;30077;52.474;13.326;2022-08-21T01:01:24;14.38;;;11.27;;
44358;SDS011;30077;52.474;13.326;2022-08-21T01:06:25;11.13;;;9.97;;
44358;SDS011;30077;52.474;13.326;2022-08-21T01:11:25;13.73;;;11.03;;
44358;SDS011;30077;52.474;13.326;2022-08-21T01:16:25;14.00;;;11.17;;
44358;SDS011;30077;52.474;13.326;2022-08-21T01:21:26;15.77;;;11.10;;
44358;SDS011;30077;52.474;13.326;2022-08-21T01:26:28;12.35;;;10.93;;
44358;SDS011;30077;52.474;13.326;2022-08-21T01:31:31;15.23;;;11.57;;
44358;SDS011;30077;52.474;13.326;2022-08-21T01:36:32;11.65;;;10.45;;
44358;SDS011;30077;52.474;13.326;2022-08-21T01:41:33;13.90;;;10.88;;
44358;SDS011;30077;52.474;13.326;2022-08-21T01:46:34;14.57;;;10.07;;
44358;SDS011;30077;52.474;13.326;2022-08-21T01:51:34;16.08;;;10.20;;
44358;SDS011;30077;52.474;13.326;2022-08-21T01:56:36;9.38;;;8.40;;
44358;SDS011;30077;52.474;13.326;2022-08-21T02:01:38;13.02;;;7.93;;
44358;SDS011;30077;52.474;13.326;2022-08-21T02:06:42;13.07;;;7.47;;
44358;SDS011;30077;52.474;13.326;2022-08-21T02:11:43;10.18;;;6.70;;
44358;SDS011;30077;52.474;13.326;2022-08-21T02:16:43;12.15;;;6.22;;
44358;SDS011;30077;52.474;13.326;2022-08-21T02:21:44;8.25;;;5.90;;
44358;SDS011;30077;52.474;13.326;2022-08-21T02:26:45;10.65;;;6.05;;
44358;SDS011;30077;52.474;13.326;2022-08-21T02:31:45;9.25;;;6.13;;
44358;SDS011;30077;52.474;13.326;2022-08-21T02:36:45;10.75;;;6.25;;
44358;SDS011;30077;52.474;13.326;2022-08-21T02:41:45;7.37;;;5.87;;
44358;SDS011;30077;52.474;13.326;2022-08-21T02:46:46;14.35;;;6.88;;
44358;SDS011;30077;52.474;13.326;2022-08-21T02:51:46;8.82;;;5.30;;
44358;SDS011;30077;52.474;13.326;2022-08-21T02:56:46;9.73;;;5.20;;
44358;SDS011;30077;52.474;13.326;2022-08-21T03:01:46;15.52;;;5.57;;
44358;SDS011;30077;52.474;13.326;2022-08-21T03:06:46;15.20;;;5.40;;
44358;SDS011;30077;52.474;13.326;2022-08-21T03:11:47;7.80;;;5.10;;
44358;SDS011;30077;52.474;13.326;2022-08-21T03:16:47;12.43;;;5.38;;
44358;SDS011;30077;52.474;13.326;2022-08-21T03:21:48;9.95;;;4.65;;
44358;SDS011;30077;52.474;13.326;2022-08-21T03:26:48;9.65;;;4.50;;
44358;SDS011;30077;52.474;13.326;2022-08-21T03:31:48;9.07;;;4.72;;
44358;SDS011;30077;52.474;13.326;2022-08-21T03:36:49;9.32;;;4.45;;
44358;SDS011;30077;52.474;13.326;2022-08-21T03:41:49;11.43;;;4.60;;
44358;SDS011;30077;52.474;13.326;2022-08-21T03:46:50;11.55;;;5.07;;
44358;SDS011;30077;52.474;13.326;2022-08-21T03:51:50;7.25;;;4.10;;
44358;SDS011;30077;52.474;13.326;2022-08-21T03:56:50;10.90;;;4.72;;
44358;SDS011;30077;52.474;13.326;2022-08-21T04:01:55;12.25;;;4.32;;
44358;SDS011;30077;52.474;13.326;2022-08-21T04:06:57;7.25;;;4.07;;
44358;SDS011;30077;52.474;13.326;2022-08-21T04:11:58;9.15;;;4.45;;
44358;SDS011;30077;52.474;13.326;2022-08-21T04:16:59;11.63;;;5.05;;
44358;SDS011;30077;52.474;13.326;2022-08-21T04:21:59;14.20;;;5.28;;
44358;SDS011;30077;52.474;13.326;2022-08-21T04:27:00;7.93;;;4.28;;
44358;SDS011;30077;52.474;13.326;2022-08-21T04:32:00;11.90;;;4.07;;
44358;SDS011;30077;52.474;13.326;2022-08-21T04:37:00;7.80;;;4.00;;
44358;SDS011;30077;52.474;13.326;2022-08-21T04:42:01;10.40;;;4.70;;
44358;SDS011;30077;52.474;13.326;2022-08-21T04:47:01;8.85;;;3.92;;
44358;SDS011;30077;52.474;13.326;2022-08-21T04:52:01;9.50;;;3.90;;
44358;SDS011;30077;52.474;13.326;2022-08-21T04:57:04;13.70;;;4.38;;
44358;SDS011;30077;52.474;13.326;2022-08-21T05:02:08;8.90;;;4.32;;
44358;SDS011;30077;52.474;13.326;2022-08-21T05:07:10;14.88;;;3.47;;
44358;SDS011;30077;52.474;13.326;2022-08-21T05:12:14;8.82;;;3.33;;
44358;SDS011;30077;52.474;13.326;2022-08-21T05:17:14;9.75;;;3.88;;
44358;SDS011;30077;52.474;13.326;2022-08-21T05:22:21;8.82;;;4.03;;
44358;SDS011;30077;52.474;13.326;2022-08-21T05:27:22;6.15;;;3.67;;
44358;SDS011;30077;52.474;13.326;2022-08-21T05:32:22;16.58;;;4.35;;
44358;SDS011;30077;52.474;13.326;2022-08-21T05:37:22;6.00;;;3.17;;
44358;SDS011;30077;52.474;13.326;2022-08-21T05:42:23;8.60;;;3.55;;
44358;SDS011;30077;52.474;13.326;2022-08-21T05:47:23;8.70;;;3.70;;
44358;SDS011;30077;52.474;13.326;2022-08-21T05:52:23;10.60;;;4.63;;
44358;SDS011;30077;52.474;13.326;2022-08-21T05:57:24;7.13;;;4.30;;
44358;SDS011;30077;52.474;13.326;2022-08-21T06:02:25;7.15;;;4.32;;
44358;SDS011;30077;52.474;13.326;2022-08-21T06:07:25;5.80;;;3.72;;
44358;SDS011;30077;52.474;13.326;2022-08-21T06:12:25;5.85;;;3.85;;
44358;SDS011;30077;52.474;13.326;2022-08-21T06:17:26;14.57;;;4.50;;
44358;SDS011;30077;52.474;13.326;2022-08-21T06:22:26;8.45;;;4.50;;
44358;SDS011;30077;52.474;13.326;2022-08-21T06:27:26;9.85;;;4.90;;
44358;SDS011;30077;52.474;13.326;2022-08-21T06:32:27;11.23;;;4.05;;
44358;SDS011;30077;52.474;13.326;2022-08-21T06:37:27;7.55;;;4.22;;
44358;SDS011;30077;52.474;13.326;2022-08-21T06:42:27;8.27;;;3.63;;
44358;SDS011;30077;52.474;13.326;2022-08-21T06:47:28;7.57;;;3.03;;
44358;SDS011;30077;52.474;13.326;2022-08-21T06:52:28;7.85;;;3.78;;
44358;SDS011;30077;52.474;13.326;2022-08-21T06:57:28;4.38;;;2.83;;
44358;SDS011;30077;52.474;13.326;2022-08-21T07:02:28;9.75;;;3.40;;
44358;SDS011;30077;52.474;13.326;2022-08-21T07:07:29;8.15;;;3.15;;
44358;SDS011;30077;52.474;13.326;2022-08-21T07:12:29;11.07;;;3.30;;
44358;SDS011;30077;52.474;13.326;2022-08-21T07:17:30;9.80;;;3.45;;
44358;SDS011;30077;52.474;13.326;2022-08-21T07:22:30;7.22;;;2.42;;
44358;SDS011;30077;52.474;13.326;2022-08-21T07:27:31;8.82;;;2.92;;
44358;SDS011;30077;52.474;13.326;2022-08-21T07:32:31;7.03;;;2.50;;
44358;SDS011;30077;52.474;13.326;2022-08-21T07:37:31;10.40;;;2.70;;
44358;SDS011;30077;52.474;13.326;2022-08-21T07:42:32;6.10;;;2.72;;
44358;SDS011;30077;52.474;13.326;2022-08-21T07:47:32;4.60;;;2.27;;
44358;SDS011;30077;52.474;13.326;2022-08-21T07:52:33;3.88;;;2.63;;
44358;SDS011;30077;52.474;13.326;2022-08-21T07:57:33;5.10;;;2.22;;
44358;SDS011;30077;52.474;13.326;2022-08-21T08:02:34;5.30;;;2.22;;
44358;SDS011;30077;52.474;13.326;2022-08-21T08:07:34;5.30;;;2.10;;
44358;SDS011;30077;52.474;13.326;2022-08-21T08:12:35;5.43;;;2.50;;
44358;SDS011;30077;52.474;13.326;2022-08-21T08:17:37;9.45;;;2.38;;
44358;SDS011;30077;52.474;13.326;2022-08-21T08:22:38;7.55;;;3.17;;
44358;SDS011;30077;52.474;13.326;2022-08-21T08:27:40;9.80;;;3.53;;
44358;SDS011;30077;52.474;13.326;2022-08-21T08:32:40;8.45;;;2.92;;
44358;SDS011;30077;52.474;13.326;2022-08-21T08:37:40;8.07;;;3.00;;
44358;SDS011;30077;52.474;13.326;2022-08-21T08:42:41;11.10;;;3.40;;
44358;SDS011;30077;52.474;13.326;2022-08-21T08:47:45;12.38;;;3.50;;
44358;SDS011;30077;52.474;13.326;2022-08-21T08:52:51;6.75;;;3.22;;
44358;SDS011;30077;52.474;13.326;2022-08-21T08:57:57;6.85;;;2.92;;
44358;SDS011;30077;52.474;13.326;2022-08-21T09:02:59;12.20;;;3.17;;
44358;SDS011;30077;52.474;13.326;2022-08-21T09:13:43;6.82;;;3.38;;
44358;SDS011;30077;52.474;13.326;2022-08-21T09:19:02;7.75;;;3.10;;
44358;SDS011;30077;52.474;13.326;2022-08-21T09:24:17;9.13;;;2.65;;
44358;SDS011;30077;52.474;13.326;2022-08-21T09:29:20;6.05;;;3.38;;
44358;SDS011;30077;52.474;13.326;2022-08-21T09:34:25;13.82;;;3.38;;
44358;SDS011;30077;52.474;13.326;2022-08-21T09:39:28;9.50;;;3.55;;
44358;SDS011;30077;52.474;13.326;2022-08-21T09:44:31;8.48;;;3.33;;
44358;SDS011;30077;52.474;13.326;2022-08-21T09:49:37;6.78;;;3.72;;
44358;SDS011;30077;52.474;13.326;2022-08-21T09:54:40;8.88;;;3.33;;
44358;SDS011;30077;52.474;13.326;2022-08-21T09:59:44;8.10;;;3.03;;
44358;SDS011;30077;52.474;13.326;2022-08-21T10:04:50;10.52;;;3.30;;
44358;SDS011;30077;52.474;13.326;2022-08-21T10:20:23;6.05;;;2.60;;
44358;SDS011;30077;52.474;13.326;2022-08-21T10:25:33;4.97;;;2.40;;
44358;SDS011;30077;52.474;13.326;2022-08-21T10:30:51;6.50;;;2.22;;
44358;SDS011;30077;52.474;13.326;2022-08-21T10:36:02;5.63;;;1.70;;
44358;SDS011;30077;52.474;13.326;2022-08-21T10:41:18;3.20;;;1.70;;
44358;SDS011;30077;52.474;13.326;2022-08-21T10:51:55;3.97;;;1.48;;
44358;SDS011;30077;52.474;13.326;2022-08-21T10:57:39;6.28;;;1.48;;
44358;SDS011;30077;52.474;13.326;2022-08-21T11:02:49;5.60;;;1.73;;
44358;SDS011;30077;52.474;13.326;2022-08-21T11:07:59;2.42;;;1.48;;
44358;SDS011;30077;52.474;13.326;2022-08-21T11:13:15;4.32;;;1.58;;
44358;SDS011;30077;52.474;13.326;2022-08-21T11:18:24;3.03;;;1.52;;
44358;SDS011;30077;52.474;13.326;2022-08-21T11:23:28;3.47;;;1.65;;
44358;SDS011;30077;52.474;13.326;2022-08-21T11:28:40;5.30;;;1.65;;
44358;SDS011;30077;52.474;13.326;2022-08-21T11:44:11;2.70;;;1.83;;
44358;SDS011;30077;52.474;13.326;2022-08-21T11:49:49;4.30;;;1.52;;
44358;SDS011;30077;52.474;13.326;2022-08-21T11:55:12;4.57;;;1.88;;
44358;SDS011;30077;52.474;13.326;2022-08-21T12:05:23;3.03;;;1.55;;
44358;SDS011;30077;52.474;13.326;2022-08-21T12:10:39;6.05;;;1.80;;
44358;SDS011;30077;52.474;13.326;2022-08-21T12:15:42;3.72;;;1.80;;
44358;SDS011;30077;52.474;13.326;2022-08-21T12:20:57;2.95;;;1.83;;
44358;SDS011;30077;52.474;13.326;2022-08-21T12:26:20;2.22;;;1.55;;
44358;SDS011;30077;52.474;13.326;2022-08-21T12:36:42;3.50;;;1.70;;
44358;SDS011;30077;52.474;13.326;2022-08-21T12:42:00;5.10;;;1.75;;
44358;SDS011;30077;52.474;13.326;2022-08-21T12:47:12;4.38;;;1.70;;
44358;SDS011;30077;52.474;13.326;2022-08-21T12:52:20;2.45;;;1.52;;
44358;SDS011;30077;52.474;13.326;2022-08-21T12:57:30;5.72;;;2.58;;
44358;SDS011;30077;52.474;13.326;2022-08-21T13:02:35;3.63;;;1.73;;
44358;SDS011;30077;52.474;13.326;2022-08-21T13:07:43;6.20;;;2.10;;
44358;SDS011;30077;52.474;13.326;2022-08-21T13:12:46;6.68;;;2.42;;
44358;SDS011;30077;52.474;13.326;2022-08-21T13:17:48;8.05;;;2.63;;
44358;SDS011;30077;52.474;13.326;2022-08-21T13:22:50;4.93;;;2.45;;
44358;SDS011;30077;52.474;13.326;2022-08-21T13:27:58;6.32;;;2.72;;
44358;SDS011;30077;52.474;13.326;2022-08-21T13:33:05;4.18;;;2.45;;
44358;SDS011;30077;52.474;13.326;2022-08-21T13:38:05;8.63;;;2.50;;
44358;SDS011;30077;52.474;13.326;2022-08-21T13:43:14;6.40;;;2.28;;
44358;SDS011;30077;52.474;13.326;2022-08-21T13:48:19;3.45;;;1.98;;
44358;SDS011;30077;52.474;13.326;2022-08-21T13:58:32;8.05;;;2.63;;
44358;SDS011;30077;52.474;13.326;2022-08-21T14:03:45;8.60;;;2.50;;
44358;SDS011;30077;52.474;13.326;2022-08-21T14:08:54;6.93;;;2.30;;
44358;SDS011;30077;52.474;13.326;2022-08-21T14:13:59;5.90;;;2.80;;
44358;SDS011;30077;52.474;13.326;2022-08-21T14:29:06;7.30;;;2.78;;
44358;SDS011;30077;52.474;13.326;2022-08-21T14:34:09;6.15;;;2.75;;
44358;SDS011;30077;52.474;13.326;2022-08-21T14:39:12;5.78;;;2.78;;
44358;SDS011;30077;52.474;13.326;2022-08-21T14:44:13;5.13;;;2.67;;
44358;SDS011;30077;52.474;13.326;2022-08-21T14:49:14;5.00;;;2.83;;
44358;SDS011;30077;52.474;13.326;2022-08-21T14:54:15;6.10;;;2.33;;
44358;SDS011;30077;52.474;13.326;2022-08-21T14:59:16;5.93;;;2.80;;
44358;SDS011;30077;52.474;13.326;2022-08-21T15:04:17;4.85;;;2.45;;
44358;SDS011;30077;52.474;13.326;2022-08-21T15:09:18;7.25;;;2.90;;
44358;SDS011;30077;52.474;13.326;2022-08-21T15:14:20;5.28;;;2.90;;
44358;SDS011;30077;52.474;13.326;2022-08-21T15:19:24;5.85;;;2.30;;
44358;SDS011;30077;52.474;13.326;2022-08-21T15:24:25;7.85;;;2.88;;
44358;SDS011;30077;52.474;13.326;2022-08-21T15:29:25;6.88;;;2.70;;
44358;SDS011;30077;52.474;13.326;2022-08-21T15:34:27;6.07;;;2.88;;
44358;SDS011;30077;52.474;13.326;2022-08-21T15:44:29;9.45;;;2.80;;
44358;SDS011;30077;52.474;13.326;2022-08-21T15:49:29;6.88;;;3.00;;
44358;SDS011;30077;52.474;13.326;2022-08-21T15:54:30;9.93;;;3.75;;
44358;SDS011;30077;52.474;13.326;2022-08-21T15:59:32;12.55;;;3.05;;
44358;SDS011;30077;52.474;13.326;2022-08-21T16:04:39;9.95;;;3.25;;
44358;SDS011;30077;52.474;13.326;2022-08-21T16:09:39;8.13;;;3.00;;
44358;SDS011;30077;52.474;13.326;2022-08-21T16:14:40;8.35;;;3.30;;
44358;SDS011;30077;52.474;13.326;2022-08-21T16:19:40;7.57;;;3.55;;
44358;SDS011;30077;52.474;13.326;2022-08-21T16:24:41;5.75;;;4.05;;
44358;SDS011;30077;52.474;13.326;2022-08-21T16:29:42;7.80;;;3.30;;
44358;SDS011;30077;52.474;13.326;2022-08-21T16:34:44;5.67;;;3.53;;
44358;SDS011;30077;52.474;13.326;2022-08-21T16:39:46;5.13;;;3.35;;
44358;SDS011;30077;52.474;13.326;2022-08-21T16:44:47;4.53;;;2.63;;
44358;SDS011;30077;52.474;13.326;2022-08-21T16:49:47;5.90;;;2.78;;
44358;SDS011;30077;52.474;13.326;2022-08-21T16:59:50;7.40;;;3.37;;
44358;SDS011;30077;52.474;13.326;2022-08-21T17:04:50;9.32;;;3.45;;
44358;SDS011;30077;52.474;13.326;2022-08-21T17:09:51;7.35;;;2.88;;
44358;SDS011;30077;52.474;13.326;2022-08-21T17:14:51;5.35;;;2.55;;
44358;SDS011;30077;52.474;13.326;2022-08-21T17:19:51;7.53;;;3.00;;
44358;SDS011;30077;52.474;13.326;2022-08-21T17:24:52;7.60;;;3.33;;
44358;SDS011;30077;52.474;13.326;2022-08-21T17:29:52;4.55;;;2.85;;
44358;SDS011;30077;52.474;13.326;2022-08-21T17:34:53;3.70;;;2.30;;
44358;SDS011;30077;52.474;13.326;2022-08-21T17:39:54;8.13;;;3.72;;
44358;SDS011;30077;52.474;13.326;2022-08-21T17:44:54;5.38;;;2.88;;
44358;SDS011;30077;52.474;13.326;2022-08-21T17:49:56;9.77;;;2.63;;
44358;SDS011;30077;52.474;13.326;2022-08-21T17:54:56;7.13;;;2.97;;
44358;SDS011;30077;52.474;13.326;2022-08-21T17:59:56;7.65;;;2.85;;
44358;SDS011;30077;52.474;13.326;2022-08-21T18:04:57;6.20;;;2.67;;
44358;SDS011;30077;52.474;13.326;2022-08-21T18:09:57;6.65;;;3.33;;
44358;SDS011;30077;52.474;13.326;2022-08-21T18:14:59;5.75;;;3.13;;
44358;SDS011;30077;52.474;13.326;2022-08-21T18:20:00;4.28;;;2.85;;
44358;SDS011;30077;52.474;13.326;2022-08-21T18:25:01;5.68;;;3.50;;
44358;SDS011;30077;52.474;13.326;2022-08-21T18:30:01;10.00;;;5.47;;
44358;SDS011;30077;52.474;13.326;2022-08-21T18:40:05;26.40;;;15.80;;
44358;SDS011;30077;52.474;13.326;2022-08-21T18:45:08;8.25;;;4.93;;
44358;SDS011;30077;52.474;13.326;2022-08-21T18:50:12;7.05;;;4.93;;
44358;SDS011;30077;52.474;13.326;2022-08-21T18:55:14;9.77;;;3.90;;
44358;SDS011;30077;52.474;13.326;2022-08-21T19:00:17;7.70;;;4.78;;
44358;SDS011;30077;52.474;13.326;2022-08-21T19:05:20;18.30;;;13.73;;
44358;SDS011;30077;52.474;13.326;2022-08-21T19:10:23;14.38;;;10.07;;
44358;SDS011;30077;52.474;13.326;2022-08-21T19:15:23;11.15;;;8.75;;
44358;SDS011;30077;52.474;13.326;2022-08-21T19:20:25;10.30;;;6.25;;
44358;SDS011;30077;52.474;13.326;2022-08-21T19:25:28;9.93;;;6.90;;
44358;SDS011;30077;52.474;13.326;2022-08-21T19:30:29;11.52;;;7.32;;
44358;SDS011;30077;52.474;13.326;2022-08-21T19:35:30;8.60;;;6.88;;
44358;SDS011;30077;52.474;13.326;2022-08-21T19:40:30;30.13;;;19.92;;
44358;SDS011;30077;52.474;13.326;2022-08-21T19:45:30;15.57;;;11.35;;
44358;SDS011;30077;52.474;13.326;2022-08-21T19:50:34;25.33;;;14.65;;
44358;SDS011;30077;52.474;13.326;2022-08-21T19:55:34;12.55;;;8.05;;
44358;SDS011;30077;52.474;13.326;2022-08-21T20:00:34;11.10;;;6.63;;
44358;SDS011;30077;52.474;13.326;2022-08-21T20:05:34;9.30;;;7.30;;
44358;SDS011;30077;52.474;13.326;2022-08-21T20:10:35;12.80;;;7.40;;
44358;SDS011;30077;52.474;13.326;2022-08-21T20:15:35;12.82;;;7.68;;
44358;SDS011;30077;52.474;13.326;2022-08-21T20:20:35;12.53;;;6.47;;
44358;SDS011;30077;52.474;13.326;2022-08-21T20:25:36;21.73;;;12.55;;
44358;SDS011;30077;52.474;13.326;2022-08-21T20:30:37;12.65;;;8.30;;
44358;SDS011;30077;52.474;13.326;2022-08-21T20:35:39;11.45;;;7.97;;
44358;SDS011;30077;52.474;13.326;2022-08-21T20:40:40;13.82;;;7.80;;
44358;SDS011;30077;52.474;13.326;2022-08-21T20:45:42;12.07;;;7.50;;
44358;SDS011;30077;52.474;13.326;2022-08-21T20:50:46;14.27;;;7.67;;
44358;SDS011;30077;52.474;13.326;2022-08-21T20:55:49;11.40;;;6.72;;
44358;SDS011;30077;52.474;13.326;2022-08-21T21:00:50;10.55;;;6.68;;
44358;SDS011;30077;52.474;13.326;2022-08-21T21:05:52;12.63;;;6.57;;
44358;SDS011;30077;52.474;13.326;2022-08-21T21:16:42;12.73;;;6.93;;
44358;SDS011;30077;52.474;13.326;2022-08-21T21:21:49;9.45;;;6.32;;
44358;SDS011;30077;52.474;13.326;2022-08-21T21:27:05;13.98;;;7.05;;
44358;SDS011;30077;52.474;13.326;2022-08-21T21:32:11;12.65;;;6.82;;
44358;SDS011;30077;52.474;13.326;2022-08-21T21:37:16;12.27;;;6.97;;
44358;SDS011;30077;52.474;13.326;2022-08-21T21:42:35;15.02;;;7.07;;
44358;SDS011;30077;52.474;13.326;2022-08-21T21:53:30;15.13;;;9.43;;
44358;SDS011;30077;52.474;13.326;2022-08-21T22:15:00;10.77;;;7.35;;
44358;SDS011;30077;52.474;13.326;2022-08-21T22:20:03;11.65;;;7.07;;
44358;SDS011;30077;52.474;13.326;2022-08-21T22:25:20;9.52;;;6.18;;
44358;SDS011;30077;52.474;13.326;2022-08-21T22:30:39;13.27;;;6.53;;
44358;SDS011;30077;52.474;13.326;2022-08-21T22:35:39;10.73;;;6.85;;
44358;SDS011;30077;52.474;13.326;2022-08-21T22:40:40;12.38;;;8.32;;
44358;SDS011;30077;52.474;13.326;2022-08-21T22:45:54;18.65;;;11.68;;
44358;SDS011;30077;52.474;13.326;2022-08-21T22:51:03;18.98;;;11.55;;
44358;SDS011;30077;52.474;13.326;2022-08-21T22:56:07;8.98;;;6.38;;
44358;SDS011;30077;52.474;13.326;2022-08-21T23:06:25;7.93;;;5.90;;
44358;SDS011;30077;52.474;13.326;2022-08-21T23:11:41;8.50;;;6.32;;
44358;SDS011;30077;52.474;13.326;2022-08-21T23:16:51;9.82;;;6.65;;
44358;SDS011;30077;52.474;13.326;2022-08-21T23:22:09;13.70;;;7.47;;
44358;SDS011;30077;52.474;13.326;2022-08-21T23:33:03;11.10;;;6.57;;
44358;SDS011;30077;52.474;13.326;2022-08-21T23:39:02;13.90;;;6.93;;
